sensor_id;sensor_type;location;lat;lon;timestamp;P1;durP1;ratioP1;P2;durP2;ratioP2
22949;SDS011;11641;51.018;4.474;2023-04-24T00:00:54;25.45;;;12.00;;
22949;SDS011;11641;51.018;4.474;2023-04-24T00:03:26;23.88;;;12.98;;
22949;SDS011;11641;51.018;4.474;2023-04-24T00:05:52;21.33;;;12.07;;
22949;SDS011;11641;51.018;4.474;2023-04-24T00:08:21;22.02;;;12.35;;
22949;SDS011;11641;51.018;4.474;2023-04-24T00:10:48;24.38;;;12.32;;
22949;SDS011;11641;51.018;4.474;2023-04-24T00:13:14;20.35;;;12.30;;
22949;SDS011;11641;51.018;4.474;2023-04-24T00:15:42;26.70;;;12.23;;
22949;SDS011;11641;51.018;4.474;2023-04-24T00:18:07;24.20;;;12.73;;
22949;SDS011;11641;51.018;4.474;2023-04-24T00:20:33;24.23;;;12.63;;
22949;SDS011;11641;51.018;4.474;2023-04-24T00:23:02;20.95;;;11.98;;
22949;SDS011;11641;51.018;4.474;2023-04-24T00:25:28;28.48;;;12.18;;
22949;SDS011;11641;51.018;4.474;2023-04-24T00:27:56;26.48;;;12.52;;
22949;SDS011;11641;51.018;4.474;2023-04-24T00:30:23;26.13;;;13.32;;
22949;SDS011;11641;51.018;4.474;2023-04-24T00:32:49;26.60;;;13.35;;
22949;SDS011;11641;51.018;4.474;2023-04-24T00:35:15;24.35;;;13.23;;
22949;SDS011;11641;51.018;4.474;2023-04-24T00:37:41;19.63;;;13.00;;
22949;SDS011;11641;51.018;4.474;2023-04-24T00:40:07;28.92;;;13.50;;
22949;SDS011;11641;51.018;4.474;2023-04-24T00:42:33;25.45;;;13.15;;
22949;SDS011;11641;51.018;4.474;2023-04-24T00:44:59;25.40;;;14.20;;
22949;SDS011;11641;51.018;4.474;2023-04-24T00:47:25;24.48;;;13.07;;
22949;SDS011;11641;51.018;4.474;2023-04-24T00:49:55;30.90;;;13.98;;
22949;SDS011;11641;51.018;4.474;2023-04-24T00:52:21;18.85;;;13.00;;
22949;SDS011;11641;51.018;4.474;2023-04-24T00:54:49;22.35;;;13.52;;
22949;SDS011;11641;51.018;4.474;2023-04-24T00:57:15;22.60;;;13.02;;
22949;SDS011;11641;51.018;4.474;2023-04-24T00:59:43;23.48;;;12.88;;
22949;SDS011;11641;51.018;4.474;2023-04-24T01:02:09;26.13;;;12.25;;
22949;SDS011;11641;51.018;4.474;2023-04-24T01:04:36;23.48;;;12.73;;
22949;SDS011;11641;51.018;4.474;2023-04-24T01:07:02;23.35;;;12.88;;
22949;SDS011;11641;51.018;4.474;2023-04-24T01:09:28;17.75;;;11.70;;
22949;SDS011;11641;51.018;4.474;2023-04-24T01:11:54;19.83;;;10.38;;
22949;SDS011;11641;51.018;4.474;2023-04-24T01:14:21;25.85;;;11.88;;
22949;SDS011;11641;51.018;4.474;2023-04-24T01:16:48;18.83;;;12.20;;
22949;SDS011;11641;51.018;4.474;2023-04-24T01:19:13;19.90;;;11.95;;
22949;SDS011;11641;51.018;4.474;2023-04-24T01:21:41;22.02;;;11.85;;
22949;SDS011;11641;51.018;4.474;2023-04-24T01:24:08;23.80;;;12.45;;
22949;SDS011;11641;51.018;4.474;2023-04-24T01:26:37;25.20;;;12.50;;
22949;SDS011;11641;51.018;4.474;2023-04-24T01:29:02;20.73;;;12.00;;
22949;SDS011;11641;51.018;4.474;2023-04-24T01:31:28;21.02;;;11.93;;
22949;SDS011;11641;51.018;4.474;2023-04-24T01:33:54;22.90;;;12.30;;
22949;SDS011;11641;51.018;4.474;2023-04-24T01:36:24;22.58;;;11.68;;
22949;SDS011;11641;51.018;4.474;2023-04-24T01:38:53;26.73;;;12.57;;
22949;SDS011;11641;51.018;4.474;2023-04-24T01:41:20;22.33;;;12.65;;
22949;SDS011;11641;51.018;4.474;2023-04-24T01:43:46;21.67;;;11.80;;
22949;SDS011;11641;51.018;4.474;2023-04-24T01:46:16;21.25;;;12.07;;
22949;SDS011;11641;51.018;4.474;2023-04-24T01:48:42;18.42;;;11.63;;
22949;SDS011;11641;51.018;4.474;2023-04-24T01:51:07;20.63;;;11.45;;
22949;SDS011;11641;51.018;4.474;2023-04-24T01:53:33;19.00;;;11.82;;
22949;SDS011;11641;51.018;4.474;2023-04-24T01:55:59;17.90;;;11.57;;
22949;SDS011;11641;51.018;4.474;2023-04-24T01:58:27;21.08;;;11.80;;
22949;SDS011;11641;51.018;4.474;2023-04-24T02:00:55;19.23;;;11.77;;
22949;SDS011;11641;51.018;4.474;2023-04-24T02:03:22;21.73;;;11.82;;
22949;SDS011;11641;51.018;4.474;2023-04-24T02:05:50;21.80;;;11.80;;
22949;SDS011;11641;51.018;4.474;2023-04-24T02:08:15;19.88;;;11.18;;
22949;SDS011;11641;51.018;4.474;2023-04-24T02:10:43;22.10;;;11.57;;
22949;SDS011;11641;51.018;4.474;2023-04-24T02:13:10;18.10;;;11.43;;
22949;SDS011;11641;51.018;4.474;2023-04-24T02:15:36;13.32;;;7.72;;
22949;SDS011;11641;51.018;4.474;2023-04-24T02:18:05;14.55;;;8.82;;
22949;SDS011;11641;51.018;4.474;2023-04-24T02:20:31;14.35;;;9.48;;
22949;SDS011;11641;51.018;4.474;2023-04-24T02:23:00;16.23;;;9.55;;
22949;SDS011;11641;51.018;4.474;2023-04-24T02:25:26;14.27;;;9.23;;
22949;SDS011;11641;51.018;4.474;2023-04-24T02:27:52;13.25;;;8.93;;
22949;SDS011;11641;51.018;4.474;2023-04-24T02:30:18;14.57;;;9.65;;
22949;SDS011;11641;51.018;4.474;2023-04-24T02:32:44;19.05;;;10.32;;
22949;SDS011;11641;51.018;4.474;2023-04-24T02:35:15;18.42;;;9.88;;
22949;SDS011;11641;51.018;4.474;2023-04-24T02:37:43;16.92;;;9.82;;
22949;SDS011;11641;51.018;4.474;2023-04-24T02:40:08;17.27;;;10.00;;
22949;SDS011;11641;51.018;4.474;2023-04-24T02:42:34;16.98;;;10.10;;
22949;SDS011;11641;51.018;4.474;2023-04-24T02:45:00;16.08;;;9.02;;
22949;SDS011;11641;51.018;4.474;2023-04-24T02:47:26;17.65;;;10.60;;
22949;SDS011;11641;51.018;4.474;2023-04-24T02:49:51;19.00;;;10.00;;
22949;SDS011;11641;51.018;4.474;2023-04-24T02:52:20;16.42;;;10.27;;
22949;SDS011;11641;51.018;4.474;2023-04-24T02:54:46;13.25;;;9.95;;
22949;SDS011;11641;51.018;4.474;2023-04-24T02:57:12;18.70;;;11.05;;
22949;SDS011;11641;51.018;4.474;2023-04-24T02:59:38;18.35;;;10.68;;
22949;SDS011;11641;51.018;4.474;2023-04-24T03:02:09;17.98;;;11.38;;
22949;SDS011;11641;51.018;4.474;2023-04-24T03:04:37;18.23;;;9.00;;
22949;SDS011;11641;51.018;4.474;2023-04-24T03:07:02;22.80;;;10.60;;
22949;SDS011;11641;51.018;4.474;2023-04-24T03:09:30;19.65;;;11.13;;
22949;SDS011;11641;51.018;4.474;2023-04-24T03:11:56;16.98;;;10.20;;
22949;SDS011;11641;51.018;4.474;2023-04-24T03:14:22;18.83;;;9.63;;
22949;SDS011;11641;51.018;4.474;2023-04-24T03:16:48;18.35;;;10.68;;
22949;SDS011;11641;51.018;4.474;2023-04-24T03:19:13;19.85;;;10.35;;
22949;SDS011;11641;51.018;4.474;2023-04-24T03:21:41;20.08;;;11.05;;
22949;SDS011;11641;51.018;4.474;2023-04-24T03:24:07;20.25;;;11.73;;
22949;SDS011;11641;51.018;4.474;2023-04-24T03:26:40;17.43;;;10.20;;
22949;SDS011;11641;51.018;4.474;2023-04-24T03:29:06;19.88;;;10.27;;
22949;SDS011;11641;51.018;4.474;2023-04-24T03:31:33;20.33;;;10.80;;
22949;SDS011;11641;51.018;4.474;2023-04-24T03:34:01;17.05;;;9.95;;
22949;SDS011;11641;51.018;4.474;2023-04-24T03:36:27;15.05;;;10.57;;
22949;SDS011;11641;51.018;4.474;2023-04-24T03:38:53;23.05;;;10.13;;
22949;SDS011;11641;51.018;4.474;2023-04-24T03:41:18;15.43;;;9.98;;
22949;SDS011;11641;51.018;4.474;2023-04-24T03:43:47;18.58;;;9.68;;
22949;SDS011;11641;51.018;4.474;2023-04-24T03:46:13;16.73;;;10.00;;
22949;SDS011;11641;51.018;4.474;2023-04-24T03:48:41;19.08;;;9.63;;
22949;SDS011;11641;51.018;4.474;2023-04-24T03:51:06;17.73;;;10.85;;
22949;SDS011;11641;51.018;4.474;2023-04-24T03:53:34;15.93;;;9.23;;
22949;SDS011;11641;51.018;4.474;2023-04-24T03:56:00;16.27;;;9.77;;
22949;SDS011;11641;51.018;4.474;2023-04-24T03:58:28;12.90;;;9.13;;
22949;SDS011;11641;51.018;4.474;2023-04-24T04:00:55;13.40;;;9.50;;
22949;SDS011;11641;51.018;4.474;2023-04-24T04:03:23;15.55;;;9.48;;
22949;SDS011;11641;51.018;4.474;2023-04-24T04:05:53;14.63;;;9.38;;
22949;SDS011;11641;51.018;4.474;2023-04-24T04:08:22;15.20;;;10.15;;
22949;SDS011;11641;51.018;4.474;2023-04-24T04:10:47;15.00;;;10.02;;
22949;SDS011;11641;51.018;4.474;2023-04-24T04:13:13;16.10;;;10.30;;
22949;SDS011;11641;51.018;4.474;2023-04-24T04:15:39;17.73;;;10.57;;
22949;SDS011;11641;51.018;4.474;2023-04-24T04:18:05;17.20;;;10.13;;
22949;SDS011;11641;51.018;4.474;2023-04-24T04:20:31;18.80;;;10.25;;
22949;SDS011;11641;51.018;4.474;2023-04-24T04:22:58;14.60;;;10.35;;
22949;SDS011;11641;51.018;4.474;2023-04-24T04:25:26;15.13;;;10.60;;
22949;SDS011;11641;51.018;4.474;2023-04-24T04:27:52;19.23;;;10.40;;
22949;SDS011;11641;51.018;4.474;2023-04-24T04:30:18;14.50;;;9.93;;
22949;SDS011;11641;51.018;4.474;2023-04-24T04:32:45;17.60;;;9.93;;
22949;SDS011;11641;51.018;4.474;2023-04-24T04:35:12;15.65;;;8.75;;
22949;SDS011;11641;51.018;4.474;2023-04-24T04:37:40;16.27;;;8.15;;
22949;SDS011;11641;51.018;4.474;2023-04-24T04:40:06;16.23;;;8.43;;
22949;SDS011;11641;51.018;4.474;2023-04-24T04:42:37;12.02;;;7.68;;
22949;SDS011;11641;51.018;4.474;2023-04-24T04:45:07;10.85;;;6.03;;
22949;SDS011;11641;51.018;4.474;2023-04-24T04:47:37;10.27;;;6.50;;
22949;SDS011;11641;51.018;4.474;2023-04-24T04:50:04;16.38;;;8.63;;
22949;SDS011;11641;51.018;4.474;2023-04-24T04:52:30;16.85;;;9.18;;
22949;SDS011;11641;51.018;4.474;2023-04-24T04:54:56;24.02;;;12.57;;
22949;SDS011;11641;51.018;4.474;2023-04-24T04:57:24;26.08;;;12.80;;
22949;SDS011;11641;51.018;4.474;2023-04-24T04:59:50;28.20;;;13.70;;
22949;SDS011;11641;51.018;4.474;2023-04-24T05:02:16;33.90;;;15.50;;
22949;SDS011;11641;51.018;4.474;2023-04-24T05:04:44;33.55;;;15.80;;
22949;SDS011;11641;51.018;4.474;2023-04-24T05:07:11;33.38;;;16.50;;
22949;SDS011;11641;51.018;4.474;2023-04-24T05:09:40;30.83;;;16.58;;
22949;SDS011;11641;51.018;4.474;2023-04-24T05:12:08;31.20;;;16.42;;
22949;SDS011;11641;51.018;4.474;2023-04-24T05:14:36;27.92;;;15.57;;
22949;SDS011;11641;51.018;4.474;2023-04-24T05:17:04;26.55;;;14.52;;
22949;SDS011;11641;51.018;4.474;2023-04-24T05:19:32;22.35;;;10.85;;
22949;SDS011;11641;51.018;4.474;2023-04-24T05:22:02;19.45;;;12.88;;
22949;SDS011;11641;51.018;4.474;2023-04-24T05:24:35;22.83;;;12.90;;
22949;SDS011;11641;51.018;4.474;2023-04-24T05:27:01;24.25;;;12.75;;
22949;SDS011;11641;51.018;4.474;2023-04-24T05:29:27;21.15;;;12.27;;
22949;SDS011;11641;51.018;4.474;2023-04-24T05:31:55;20.15;;;10.50;;
22949;SDS011;11641;51.018;4.474;2023-04-24T05:34:21;26.80;;;11.73;;
22949;SDS011;11641;51.018;4.474;2023-04-24T05:36:52;23.70;;;11.55;;
22949;SDS011;11641;51.018;4.474;2023-04-24T05:39:18;23.88;;;11.23;;
22949;SDS011;11641;51.018;4.474;2023-04-24T05:41:44;25.00;;;12.15;;
22949;SDS011;11641;51.018;4.474;2023-04-24T05:44:12;23.20;;;12.55;;
22949;SDS011;11641;51.018;4.474;2023-04-24T05:46:40;25.25;;;13.85;;
22949;SDS011;11641;51.018;4.474;2023-04-24T05:49:06;28.88;;;13.02;;
22949;SDS011;11641;51.018;4.474;2023-04-24T05:51:34;28.17;;;13.27;;
22949;SDS011;11641;51.018;4.474;2023-04-24T05:54:00;24.65;;;12.88;;
22949;SDS011;11641;51.018;4.474;2023-04-24T05:56:26;28.98;;;13.70;;
22949;SDS011;11641;51.018;4.474;2023-04-24T05:58:54;23.23;;;13.27;;
22949;SDS011;11641;51.018;4.474;2023-04-24T06:01:21;29.10;;;13.18;;
22949;SDS011;11641;51.018;4.474;2023-04-24T06:03:48;20.35;;;12.55;;
22949;SDS011;11641;51.018;4.474;2023-04-24T06:06:15;24.70;;;13.25;;
22949;SDS011;11641;51.018;4.474;2023-04-24T06:08:44;23.65;;;12.80;;
22949;SDS011;11641;51.018;4.474;2023-04-24T06:11:10;19.48;;;11.93;;
22949;SDS011;11641;51.018;4.474;2023-04-24T06:13:36;22.17;;;12.18;;
22949;SDS011;11641;51.018;4.474;2023-04-24T06:16:01;25.10;;;12.50;;
22949;SDS011;11641;51.018;4.474;2023-04-24T06:18:28;23.80;;;12.30;;
22949;SDS011;11641;51.018;4.474;2023-04-24T06:20:54;25.40;;;14.20;;
22949;SDS011;11641;51.018;4.474;2023-04-24T06:23:20;20.67;;;10.15;;
22949;SDS011;11641;51.018;4.474;2023-04-24T06:25:46;24.60;;;12.77;;
22949;SDS011;11641;51.018;4.474;2023-04-24T06:28:12;26.05;;;14.45;;
22949;SDS011;11641;51.018;4.474;2023-04-24T06:30:37;16.02;;;8.13;;
22949;SDS011;11641;51.018;4.474;2023-04-24T06:33:06;27.10;;;15.55;;
22949;SDS011;11641;51.018;4.474;2023-04-24T06:35:33;31.42;;;15.00;;
22949;SDS011;11641;51.018;4.474;2023-04-24T06:38:01;24.85;;;15.25;;
22949;SDS011;11641;51.018;4.474;2023-04-24T06:40:32;30.77;;;14.60;;
22949;SDS011;11641;51.018;4.474;2023-04-24T06:42:58;25.10;;;14.43;;
22949;SDS011;11641;51.018;4.474;2023-04-24T06:45:25;26.38;;;14.13;;
22949;SDS011;11641;51.018;4.474;2023-04-24T06:47:51;29.17;;;14.50;;
22949;SDS011;11641;51.018;4.474;2023-04-24T06:50:16;30.58;;;14.40;;
22949;SDS011;11641;51.018;4.474;2023-04-24T06:52:42;28.75;;;14.10;;
22949;SDS011;11641;51.018;4.474;2023-04-24T06:55:09;28.67;;;15.30;;
22949;SDS011;11641;51.018;4.474;2023-04-24T06:57:38;29.90;;;15.82;;
22949;SDS011;11641;51.018;4.474;2023-04-24T07:00:05;26.67;;;15.48;;
22949;SDS011;11641;51.018;4.474;2023-04-24T07:02:32;33.25;;;15.55;;
22949;SDS011;11641;51.018;4.474;2023-04-24T07:04:57;29.45;;;14.57;;
22949;SDS011;11641;51.018;4.474;2023-04-24T07:07:23;31.45;;;14.50;;
22949;SDS011;11641;51.018;4.474;2023-04-24T07:09:51;28.83;;;13.75;;
22949;SDS011;11641;51.018;4.474;2023-04-24T07:12:16;25.85;;;13.15;;
22949;SDS011;11641;51.018;4.474;2023-04-24T07:14:45;24.52;;;13.35;;
22949;SDS011;11641;51.018;4.474;2023-04-24T07:17:11;22.08;;;10.90;;
22949;SDS011;11641;51.018;4.474;2023-04-24T07:19:39;18.70;;;10.95;;
22949;SDS011;11641;51.018;4.474;2023-04-24T07:22:05;20.85;;;10.07;;
22949;SDS011;11641;51.018;4.474;2023-04-24T07:24:31;18.98;;;9.48;;
22949;SDS011;11641;51.018;4.474;2023-04-24T07:26:57;21.42;;;9.23;;
22949;SDS011;11641;51.018;4.474;2023-04-24T07:29:24;16.13;;;7.15;;
22949;SDS011;11641;51.018;4.474;2023-04-24T07:31:49;20.98;;;7.88;;
22949;SDS011;11641;51.018;4.474;2023-04-24T07:34:18;20.25;;;7.70;;
22949;SDS011;11641;51.018;4.474;2023-04-24T07:36:43;15.60;;;6.47;;
22949;SDS011;11641;51.018;4.474;2023-04-24T07:39:09;15.15;;;6.22;;
22949;SDS011;11641;51.018;4.474;2023-04-24T07:41:36;16.48;;;6.35;;
22949;SDS011;11641;51.018;4.474;2023-04-24T07:44:05;18.17;;;5.53;;
22949;SDS011;11641;51.018;4.474;2023-04-24T07:46:31;20.70;;;6.07;;
22949;SDS011;11641;51.018;4.474;2023-04-24T07:48:57;16.75;;;4.82;;
22949;SDS011;11641;51.018;4.474;2023-04-24T07:51:24;14.40;;;4.88;;
22949;SDS011;11641;51.018;4.474;2023-04-24T07:53:52;14.25;;;4.93;;
22949;SDS011;11641;51.018;4.474;2023-04-24T07:56:19;18.52;;;5.35;;
22949;SDS011;11641;51.018;4.474;2023-04-24T07:58:48;11.50;;;4.15;;
22949;SDS011;11641;51.018;4.474;2023-04-24T08:01:13;13.93;;;4.90;;
22949;SDS011;11641;51.018;4.474;2023-04-24T08:03:39;17.10;;;4.80;;
22949;SDS011;11641;51.018;4.474;2023-04-24T08:06:05;17.02;;;5.90;;
22949;SDS011;11641;51.018;4.474;2023-04-24T08:08:33;15.00;;;6.65;;
22949;SDS011;11641;51.018;4.474;2023-04-24T08:10:58;19.17;;;6.80;;
22949;SDS011;11641;51.018;4.474;2023-04-24T08:13:24;22.67;;;7.72;;
22949;SDS011;11641;51.018;4.474;2023-04-24T08:15:53;22.00;;;8.70;;
22949;SDS011;11641;51.018;4.474;2023-04-24T08:18:19;18.20;;;7.35;;
22949;SDS011;11641;51.018;4.474;2023-04-24T08:20:44;19.75;;;8.38;;
22949;SDS011;11641;51.018;4.474;2023-04-24T08:23:12;17.33;;;7.88;;
22949;SDS011;11641;51.018;4.474;2023-04-24T08:25:38;18.92;;;7.32;;
22949;SDS011;11641;51.018;4.474;2023-04-24T08:28:05;15.45;;;6.55;;
22949;SDS011;11641;51.018;4.474;2023-04-24T08:30:31;19.95;;;6.65;;
22949;SDS011;11641;51.018;4.474;2023-04-24T08:32:59;18.55;;;5.95;;
22949;SDS011;11641;51.018;4.474;2023-04-24T08:35:25;16.33;;;6.03;;
22949;SDS011;11641;51.018;4.474;2023-04-24T08:37:52;20.90;;;7.25;;
22949;SDS011;11641;51.018;4.474;2023-04-24T08:40:18;22.05;;;8.88;;
22949;SDS011;11641;51.018;4.474;2023-04-24T08:42:55;20.98;;;8.48;;
22949;SDS011;11641;51.018;4.474;2023-04-24T08:45:22;24.08;;;8.45;;
22949;SDS011;11641;51.018;4.474;2023-04-24T08:47:48;20.65;;;6.15;;
22949;SDS011;11641;51.018;4.474;2023-04-24T08:50:16;22.75;;;6.07;;
22949;SDS011;11641;51.018;4.474;2023-04-24T08:52:42;14.63;;;5.60;;
22949;SDS011;11641;51.018;4.474;2023-04-24T08:55:08;15.63;;;5.82;;
22949;SDS011;11641;51.018;4.474;2023-04-24T08:57:36;18.27;;;5.15;;
22949;SDS011;11641;51.018;4.474;2023-04-24T09:00:05;15.07;;;4.97;;
22949;SDS011;11641;51.018;4.474;2023-04-24T09:02:33;8.40;;;3.10;;
22949;SDS011;11641;51.018;4.474;2023-04-24T09:04:59;10.30;;;4.07;;
22949;SDS011;11641;51.018;4.474;2023-04-24T09:07:27;18.33;;;4.53;;
22949;SDS011;11641;51.018;4.474;2023-04-24T09:09:54;13.05;;;4.40;;
22949;SDS011;11641;51.018;4.474;2023-04-24T09:12:25;20.00;;;5.10;;
22949;SDS011;11641;51.018;4.474;2023-04-24T09:14:51;19.40;;;4.28;;
22949;SDS011;11641;51.018;4.474;2023-04-24T09:17:19;11.55;;;4.30;;
22949;SDS011;11641;51.018;4.474;2023-04-24T09:19:45;10.90;;;4.47;;
22949;SDS011;11641;51.018;4.474;2023-04-24T09:22:13;11.93;;;4.40;;
22949;SDS011;11641;51.018;4.474;2023-04-24T09:24:40;10.85;;;4.38;;
22949;SDS011;11641;51.018;4.474;2023-04-24T09:27:05;8.80;;;3.10;;
22949;SDS011;11641;51.018;4.474;2023-04-24T09:29:32;10.68;;;3.97;;
22949;SDS011;11641;51.018;4.474;2023-04-24T09:31:58;17.23;;;4.22;;
22949;SDS011;11641;51.018;4.474;2023-04-24T09:34:27;12.63;;;3.83;;
22949;SDS011;11641;51.018;4.474;2023-04-24T09:36:55;11.85;;;3.88;;
22949;SDS011;11641;51.018;4.474;2023-04-24T09:39:23;11.85;;;4.47;;
22949;SDS011;11641;51.018;4.474;2023-04-24T09:41:50;11.52;;;4.55;;
22949;SDS011;11641;51.018;4.474;2023-04-24T09:44:21;11.73;;;4.47;;
22949;SDS011;11641;51.018;4.474;2023-04-24T09:46:50;12.10;;;4.05;;
22949;SDS011;11641;51.018;4.474;2023-04-24T09:49:30;9.95;;;3.70;;
22949;SDS011;11641;51.018;4.474;2023-04-24T09:54:31;7.28;;;3.13;;
22949;SDS011;11641;51.018;4.474;2023-04-24T09:56:56;6.00;;;2.80;;
22949;SDS011;11641;51.018;4.474;2023-04-24T09:59:22;9.35;;;2.95;;
22949;SDS011;11641;51.018;4.474;2023-04-24T10:01:48;8.13;;;3.10;;
22949;SDS011;11641;51.018;4.474;2023-04-24T10:04:24;7.60;;;3.33;;
22949;SDS011;11641;51.018;4.474;2023-04-24T10:06:52;7.70;;;2.90;;
22949;SDS011;11641;51.018;4.474;2023-04-24T10:09:20;12.27;;;2.80;;
22949;SDS011;11641;51.018;4.474;2023-04-24T10:11:47;7.88;;;2.80;;
22949;SDS011;11641;51.018;4.474;2023-04-24T10:14:19;9.52;;;3.58;;
22949;SDS011;11641;51.018;4.474;2023-04-24T10:16:47;11.75;;;3.58;;
22949;SDS011;11641;51.018;4.474;2023-04-24T10:19:18;8.60;;;3.55;;
22949;SDS011;11641;51.018;4.474;2023-04-24T10:21:45;7.40;;;3.25;;
22949;SDS011;11641;51.018;4.474;2023-04-24T10:24:13;9.27;;;3.35;;
22949;SDS011;11641;51.018;4.474;2023-04-24T10:26:42;8.90;;;3.25;;
22949;SDS011;11641;51.018;4.474;2023-04-24T10:29:13;7.35;;;2.42;;
22949;SDS011;11641;51.018;4.474;2023-04-24T10:31:44;10.80;;;3.17;;
22949;SDS011;11641;51.018;4.474;2023-04-24T10:34:11;10.90;;;4.15;;
22949;SDS011;11641;51.018;4.474;2023-04-24T10:36:40;9.27;;;3.70;;
22949;SDS011;11641;51.018;4.474;2023-04-24T10:39:09;8.48;;;3.17;;
22949;SDS011;11641;51.018;4.474;2023-04-24T10:41:39;10.65;;;3.28;;
22949;SDS011;11641;51.018;4.474;2023-04-24T10:44:06;9.30;;;2.58;;
22949;SDS011;11641;51.018;4.474;2023-04-24T10:46:32;12.80;;;2.72;;
22949;SDS011;11641;51.018;4.474;2023-04-24T10:48:59;9.60;;;3.05;;
22949;SDS011;11641;51.018;4.474;2023-04-24T10:54:26;9.90;;;3.00;;
22949;SDS011;11641;51.018;4.474;2023-04-24T10:59:44;6.13;;;2.40;;
22949;SDS011;11641;51.018;4.474;2023-04-24T11:02:10;6.18;;;3.03;;
22949;SDS011;11641;51.018;4.474;2023-04-24T11:04:36;9.80;;;2.70;;
22949;SDS011;11641;51.018;4.474;2023-04-24T11:07:02;7.43;;;2.72;;
22949;SDS011;11641;51.018;4.474;2023-04-24T11:09:31;8.98;;;3.08;;
22949;SDS011;11641;51.018;4.474;2023-04-24T11:12:04;6.78;;;2.22;;
22949;SDS011;11641;51.018;4.474;2023-04-24T11:17:28;6.32;;;2.10;;
22949;SDS011;11641;51.018;4.474;2023-04-24T11:20:02;6.30;;;2.05;;
22949;SDS011;11641;51.018;4.474;2023-04-24T11:22:32;4.90;;;2.20;;
22949;SDS011;11641;51.018;4.474;2023-04-24T11:25:00;7.60;;;2.50;;
22949;SDS011;11641;51.018;4.474;2023-04-24T11:27:31;5.43;;;2.58;;
22949;SDS011;11641;51.018;4.474;2023-04-24T11:32:29;4.93;;;1.80;;
22949;SDS011;11641;51.018;4.474;2023-04-24T11:37:26;5.15;;;2.05;;
22949;SDS011;11641;51.018;4.474;2023-04-24T11:39:56;7.68;;;2.70;;
22949;SDS011;11641;51.018;4.474;2023-04-24T11:42:23;4.07;;;2.10;;
22949;SDS011;11641;51.018;4.474;2023-04-24T11:44:52;7.53;;;2.08;;
22949;SDS011;11641;51.018;4.474;2023-04-24T11:47:20;8.88;;;3.38;;
22949;SDS011;11641;51.018;4.474;2023-04-24T11:49:56;10.10;;;3.00;;
22949;SDS011;11641;51.018;4.474;2023-04-24T11:52:21;13.65;;;3.40;;
22949;SDS011;11641;51.018;4.474;2023-04-24T11:54:48;7.15;;;3.00;;
22949;SDS011;11641;51.018;4.474;2023-04-24T11:57:23;8.07;;;3.65;;
22949;SDS011;11641;51.018;4.474;2023-04-24T11:59:53;8.02;;;3.50;;
22949;SDS011;11641;51.018;4.474;2023-04-24T12:02:23;8.32;;;3.40;;
22949;SDS011;11641;51.018;4.474;2023-04-24T12:04:50;8.43;;;3.55;;
22949;SDS011;11641;51.018;4.474;2023-04-24T12:07:17;8.32;;;3.25;;
22949;SDS011;11641;51.018;4.474;2023-04-24T12:10:04;9.48;;;2.70;;
22949;SDS011;11641;51.018;4.474;2023-04-24T12:12:32;7.00;;;2.95;;
22949;SDS011;11641;51.018;4.474;2023-04-24T12:14:58;4.90;;;2.30;;
22949;SDS011;11641;51.018;4.474;2023-04-24T12:17:28;4.97;;;2.67;;
22949;SDS011;11641;51.018;4.474;2023-04-24T12:22:44;5.83;;;2.03;;
22949;SDS011;11641;51.018;4.474;2023-04-24T12:25:16;8.18;;;2.47;;
22949;SDS011;11641;51.018;4.474;2023-04-24T12:27:43;5.45;;;2.60;;
22949;SDS011;11641;51.018;4.474;2023-04-24T12:30:13;6.25;;;2.42;;
22949;SDS011;11641;51.018;4.474;2023-04-24T12:32:41;6.32;;;2.55;;
22949;SDS011;11641;51.018;4.474;2023-04-24T12:35:12;7.05;;;2.67;;
22949;SDS011;11641;51.018;4.474;2023-04-24T12:37:41;5.57;;;2.50;;
22949;SDS011;11641;51.018;4.474;2023-04-24T12:40:10;7.35;;;2.70;;
22949;SDS011;11641;51.018;4.474;2023-04-24T12:42:43;8.43;;;2.97;;
22949;SDS011;11641;51.018;4.474;2023-04-24T12:45:12;6.43;;;2.83;;
22949;SDS011;11641;51.018;4.474;2023-04-24T12:47:41;7.15;;;2.58;;
22949;SDS011;11641;51.018;4.474;2023-04-24T12:50:09;6.60;;;2.33;;
22949;SDS011;11641;51.018;4.474;2023-04-24T12:52:39;7.57;;;2.22;;
22949;SDS011;11641;51.018;4.474;2023-04-24T12:55:06;7.10;;;2.47;;
22949;SDS011;11641;51.018;4.474;2023-04-24T12:57:34;7.32;;;2.60;;
22949;SDS011;11641;51.018;4.474;2023-04-24T13:00:02;5.93;;;2.13;;
22949;SDS011;11641;51.018;4.474;2023-04-24T13:02:30;8.25;;;2.53;;
22949;SDS011;11641;51.018;4.474;2023-04-24T13:05:00;9.23;;;2.58;;
22949;SDS011;11641;51.018;4.474;2023-04-24T13:07:26;5.03;;;2.13;;
22949;SDS011;11641;51.018;4.474;2023-04-24T13:09:55;7.25;;;2.10;;
22949;SDS011;11641;51.018;4.474;2023-04-24T13:12:21;5.80;;;1.85;;
22949;SDS011;11641;51.018;4.474;2023-04-24T13:14:49;4.13;;;1.70;;
22949;SDS011;11641;51.018;4.474;2023-04-24T13:17:18;5.88;;;1.83;;
22949;SDS011;11641;51.018;4.474;2023-04-24T13:19:44;4.07;;;1.63;;
22949;SDS011;11641;51.018;4.474;2023-04-24T13:22:11;5.97;;;1.77;;
22949;SDS011;11641;51.018;4.474;2023-04-24T13:24:37;6.65;;;1.77;;
22949;SDS011;11641;51.018;4.474;2023-04-24T13:27:05;4.18;;;1.42;;
22949;SDS011;11641;51.018;4.474;2023-04-24T13:29:31;4.22;;;1.65;;
22949;SDS011;11641;51.018;4.474;2023-04-24T13:31:57;3.67;;;1.23;;
22949;SDS011;11641;51.018;4.474;2023-04-24T13:34:23;2.90;;;1.33;;
22949;SDS011;11641;51.018;4.474;2023-04-24T13:36:50;4.55;;;1.40;;
22949;SDS011;11641;51.018;4.474;2023-04-24T13:39:17;3.38;;;1.35;;
22949;SDS011;11641;51.018;4.474;2023-04-24T13:41:43;4.85;;;1.83;;
22949;SDS011;11641;51.018;4.474;2023-04-24T13:44:10;3.25;;;1.08;;
22949;SDS011;11641;51.018;4.474;2023-04-24T13:46:35;3.55;;;1.20;;
22949;SDS011;11641;51.018;4.474;2023-04-24T13:49:03;4.20;;;1.30;;
22949;SDS011;11641;51.018;4.474;2023-04-24T13:51:29;4.68;;;1.52;;
22949;SDS011;11641;51.018;4.474;2023-04-24T13:53:55;3.95;;;1.80;;
22949;SDS011;11641;51.018;4.474;2023-04-24T13:56:21;5.80;;;1.60;;
22949;SDS011;11641;51.018;4.474;2023-04-24T13:58:47;4.25;;;1.40;;
22949;SDS011;11641;51.018;4.474;2023-04-24T14:01:13;4.45;;;1.60;;
22949;SDS011;11641;51.018;4.474;2023-04-24T14:03:42;2.75;;;1.50;;
22949;SDS011;11641;51.018;4.474;2023-04-24T14:06:11;5.70;;;1.52;;
22949;SDS011;11641;51.018;4.474;2023-04-24T14:08:40;6.97;;;1.98;;
22949;SDS011;11641;51.018;4.474;2023-04-24T14:11:05;2.63;;;1.40;;
22949;SDS011;11641;51.018;4.474;2023-04-24T14:13:31;3.55;;;1.60;;
22949;SDS011;11641;51.018;4.474;2023-04-24T14:15:59;4.38;;;1.90;;
22949;SDS011;11641;51.018;4.474;2023-04-24T14:18:27;3.50;;;1.50;;
